Time;durP1;ratioP1;P1;durP2;ratioP2;P2;SDS_P1;SDS_P2;PMS_P1;PMS_P2;Temp;Humidity;BMP_temperature;BMP_pressure;BME280_temperature;BME280_humidity;BME280_pressure;Samples;Min_cycle;Max_cycle;Signal;HPM_P1;HPM_P2
2021/06/29 00:03:26;;;;;;;;;;;26.00;44.30;;;;;;8266469;28;19922;-48
2021/06/29 00:07:26;;;;;;;;;;;26.00;44.30;;;;;;8265645;28;19940;-47
2021/06/29 00:11:27;;;;;;;;;;;26.00;44.30;;;;;;8270210;28;19909;-47
2021/06/29 00:15:28;;;;;;;;;;;26.00;44.30;;;;;;8265772;28;19921;-46
2021/06/29 00:19:28;;;;;;;;;;;25.90;44.30;;;;;;8263706;28;20012;-47
2021/06/29 00:23:29;;;;;;;;;;;25.90;44.30;;;;;;8265488;28;19936;-47
2021/06/29 00:27:29;;;;;;;;;;;26.00;44.40;;;;;;8265192;28;20298;-48
2021/06/29 00:31:30;;;;;;;;;;;25.90;44.30;;;;;;8269184;28;19914;-47
2021/06/29 00:35:30;;;;;;;;;;;25.90;44.30;;;;;;8265621;28;19913;-47
2021/06/29 00:39:30;;;;;;;;;;;25.90;44.40;;;;;;8265046;28;19964;-48
2021/06/29 00:43:31;;;;;;;;;;;25.90;44.40;;;;;;8264663;28;19914;-48
2021/06/29 00:47:31;;;;;;;;;;;25.90;44.40;;;;;;8269325;28;19910;-48
2021/06/29 00:51:33;;;;;;;;;;;25.90;44.40;;;;;;8264769;28;20382;-48
2021/06/29 00:55:34;;;;;;;;;;;25.80;44.40;;;;;;8264129;28;20465;-47
2021/06/29 00:59:35;;;;;;;;;;;25.80;44.40;;;;;;8264822;28;19957;-47
2021/06/29 01:03:36;;;;;;;;;;;25.90;44.50;;;;;;8268898;28;19918;-47
2021/06/29 01:07:37;;;;;;;;;;;25.80;44.40;;;;;;8263221;28;19914;-47
2021/06/29 01:11:37;;;;;;;;;;;25.80;44.50;;;;;;8264055;28;19946;-49
2021/06/29 01:15:38;;;;;;;;;;;25.80;44.50;;;;;;8264028;28;19910;-47
2021/06/29 01:19:48;;;;;;;;;;;25.80;44.50;;;;;;8262723;28;19926;-49
2021/06/29 01:23:56;;;;;;;;;;;25.80;44.50;;;;;;8268191;28;19988;-49
2021/06/29 01:28:18;;;;;;;;;;;25.80;44.50;;;;;;8264567;28;19921;-48
2021/06/29 01:32:19;;;;;;;;;;;25.80;44.50;;;;;;8263639;28;19961;-49
2021/06/29 01:36:20;;;;;;;;;;;25.80;44.60;;;;;;8263309;28;20286;-49
2021/06/29 01:40:25;;;;;;;;;;;25.80;44.60;;;;;;8262905;28;20487;-52
2021/06/29 01:44:36;;;;;;;;;;;25.80;44.60;;;;;;8267744;28;20290;-48
2021/06/29 01:48:42;;;;;;;;;;;25.70;44.50;;;;;;8263126;28;19921;-48
2021/06/29 01:52:43;;;;;;;;;;;25.80;44.60;;;;;;8262445;28;19920;-49
2021/06/29 01:56:46;;;;;;;;;;;25.70;45.00;;;;;;8262974;28;20434;-48
2021/06/29 02:00:47;;;;;;;;;;;25.70;45.00;;;;;;8266539;28;20303;-48
2021/06/29 02:04:48;;;;;;;;;;;25.70;45.10;;;;;;8262172;28;20413;-49
2021/06/29 02:08:48;;;;;;;;;;;25.70;45.00;;;;;;8241694;28;19914;-49
2021/06/29 02:12:49;;;;;;;;;;;25.70;45.30;;;;;;8242883;28;19913;-48
2021/06/29 02:16:49;;;;;;;;;;;25.70;45.40;;;;;;8261924;28;23278;-49
2021/06/29 02:20:50;;;;;;;;;;;25.60;45.20;;;;;;8266410;28;20379;-48
2021/06/29 02:24:51;;;;;;;;;;;25.60;45.20;;;;;;8262062;28;19914;-49
2021/06/29 02:28:51;;;;;;;;;;;25.70;45.30;;;;;;8261454;28;20367;-49
2021/06/29 02:32:52;;;;;;;;;;;25.60;45.30;;;;;;8261939;28;20009;-49
2021/06/29 02:36:52;;;;;;;;;;;25.60;45.40;;;;;;8266344;28;19910;-49
2021/06/29 02:40:53;;;;;;;;;;;25.60;45.40;;;;;;8261547;28;20397;-48
2021/06/29 02:44:54;;;;;;;;;;;25.60;45.50;;;;;;8262144;28;19914;-48
2021/06/29 02:48:56;;;;;;;;;;;25.60;45.40;;;;;;8262014;28;19960;-47
2021/06/29 02:52:56;;;;;;;;;;;25.60;45.30;;;;;;8262596;28;19910;-48
2021/06/29 02:56:57;;;;;;;;;;;25.60;45.40;;;;;;8264855;28;19913;-48
2021/06/29 03:00:57;;;;;;;;;;;25.60;45.70;;;;;;8261145;28;19921;-48
2021/06/29 03:04:58;;;;;;;;;;;25.60;45.50;;;;;;8261725;28;19917;-48
2021/06/29 03:08:59;;;;;;;;;;;25.60;45.50;;;;;;8261614;28;19918;-48
2021/06/29 03:13:00;;;;;;;;;;;25.50;45.30;;;;;;8267598;28;19914;-49
2021/06/29 03:17:01;;;;;;;;;;;25.60;45.70;;;;;;8268018;28;20409;-48
2021/06/29 03:21:01;;;;;;;;;;;25.50;45.50;;;;;;8267612;28;20441;-49
2021/06/29 03:25:02;;;;;;;;;;;25.50;45.40;;;;;;8267081;28;20355;-47
2021/06/29 03:29:04;;;;;;;;;;;25.50;45.40;;;;;;8271620;28;20024;-50
2021/06/29 03:33:05;;;;;;;;;;;25.50;45.90;;;;;;8267221;28;19920;-49
2021/06/29 03:37:06;;;;;;;;;;;25.50;45.50;;;;;;8266522;28;19917;-48
2021/06/29 03:41:07;;;;;;;;;;;25.50;45.40;;;;;;8267080;28;19921;-48
2021/06/29 03:45:07;;;;;;;;;;;25.50;45.50;;;;;;8266645;28;20375;-48
2021/06/29 03:49:08;;;;;;;;;;;25.50;45.40;;;;;;8270541;28;19913;-52
2021/06/29 03:53:08;;;;;;;;;;;25.50;45.40;;;;;;8266051;28;19914;-53
2021/06/29 03:57:08;;;;;;;;;;;25.40;45.50;;;;;;8266197;28;20272;-48
2021/06/29 04:01:09;;;;;;;;;;;25.50;45.50;;;;;;8265871;28;19914;-48
2021/06/29 04:05:10;;;;;;;;;;;25.50;45.50;;;;;;8270525;28;20005;-48
2021/06/29 04:09:10;;;;;;;;;;;25.40;45.50;;;;;;8266258;28;19914;-49
2021/06/29 04:13:10;;;;;;;;;;;25.40;45.50;;;;;;8265765;28;19910;-48
2021/06/29 04:17:11;;;;;;;;;;;25.40;45.50;;;;;;8265619;28;19931;-48
2021/06/29 04:21:12;;;;;;;;;;;25.40;45.50;;;;;;8269900;28;20445;-48
2021/06/29 04:25:12;;;;;;;;;;;25.40;45.50;;;;;;8264693;28;20371;-48
2021/06/29 04:29:12;;;;;;;;;;;25.40;45.40;;;;;;8265285;28;20327;-47
2021/06/29 04:33:13;;;;;;;;;;;25.40;45.50;;;;;;8265531;28;19932;-48
2021/06/29 04:37:14;;;;;;;;;;;25.40;45.50;;;;;;8264418;28;20414;-47
2021/06/29 04:41:14;;;;;;;;;;;25.40;45.50;;;;;;8269579;28;19989;-47
2021/06/29 04:45:15;;;;;;;;;;;25.40;45.50;;;;;;8264875;28;19920;-47
2021/06/29 04:49:16;;;;;;;;;;;25.40;45.40;;;;;;8264262;28;19933;-47
2021/06/29 04:53:17;;;;;;;;;;;25.40;45.40;;;;;;8264868;28;19918;-47
2021/06/29 04:57:17;;;;;;;;;;;25.40;45.40;;;;;;8268696;28;20004;-47
2021/06/29 05:01:18;;;;;;;;;;;25.40;45.50;;;;;;8264158;28;20274;-47
2021/06/29 05:05:20;;;;;;;;;;;25.40;45.50;;;;;;8264282;28;19924;-48
2021/06/29 05:09:21;;;;;;;;;;;25.40;45.50;;;;;;8264264;28;19914;-47
2021/06/29 05:13:21;;;;;;;;;;;25.40;45.40;;;;;;8264480;28;20309;-47
2021/06/29 05:17:22;;;;;;;;;;;25.40;45.40;;;;;;8267220;28;19948;-48
2021/06/29 05:21:22;;;;;;;;;;;25.40;45.30;;;;;;8263862;28;20375;-47
2021/06/29 05:25:23;;;;;;;;;;;25.50;45.30;;;;;;8263261;28;19914;-49
2021/06/29 05:29:24;;;;;;;;;;;25.60;44.90;;;;;;8263320;28;20363;-48
2021/06/29 05:33:24;;;;;;;;;;;25.70;44.60;;;;;;8267766;28;19917;-48
2021/06/29 05:37:25;;;;;;;;;;;25.80;44.40;;;;;;8262699;28;19925;-47
2021/06/29 05:41:25;;;;;;;;;;;25.90;44.30;;;;;;8263326;28;19992;-47
2021/06/29 05:45:26;;;;;;;;;;;25.90;44.10;;;;;;8262917;28;19953;-46
2021/06/29 05:49:26;;;;;;;;;;;26.00;44.00;;;;;;8266818;28;19920;-46
2021/06/29 05:53:29;;;;;;;;;;;26.00;44.00;;;;;;8262847;28;20302;-48
2021/06/29 05:57:30;;;;;;;;;;;25.90;44.00;;;;;;8262672;28;19917;-47
2021/06/29 06:01:31;;;;;;;;;;;25.90;43.90;;;;;;8262147;28;19913;-47
2021/06/29 06:05:31;;;;;;;;;;;25.90;44.10;;;;;;8262023;28;20472;-47
2021/06/29 06:09:32;;;;;;;;;;;25.90;44.10;;;;;;8267235;28;20330;-47
2021/06/29 06:13:33;;;;;;;;;;;25.80;44.20;;;;;;8261731;28;19913;-48
2021/06/29 06:17:37;;;;;;;;;;;25.80;44.20;;;;;;8262208;28;19924;-47
2021/06/29 06:21:37;;;;;;;;;;;25.70;44.40;;;;;;8262148;28;19920;-48
2021/06/29 06:25:38;;;;;;;;;;;25.70;44.50;;;;;;8265895;28;19939;-47
2021/06/29 06:29:38;;;;;;;;;;;25.70;44.50;;;;;;8233872;28;19914;-47
2021/06/29 06:33:39;;;;;;;;;;;25.60;44.60;;;;;;8248064;28;19910;-47
2021/06/29 06:37:39;;;;;;;;;;;25.60;44.60;;;;;;8261052;28;20371;-48
2021/06/29 06:41:40;;;;;;;;;;;25.60;44.60;;;;;;8266088;28;20009;-46
2021/06/29 06:45:40;;;;;;;;;;;25.60;44.70;;;;;;8261445;28;19920;-46
2021/06/29 06:49:40;;;;;;;;;;;25.60;44.80;;;;;;8260961;28;19921;-47
2021/06/29 06:53:41;;;;;;;;;;;25.50;44.70;;;;;;8261145;28;20359;-47
2021/06/29 06:57:42;;;;;;;;;;;25.50;44.60;;;;;;8260890;28;20366;-46
2021/06/29 07:01:44;;;;;;;;;;;25.50;44.70;;;;;;8265154;28;19917;-46
2021/06/29 07:05:45;;;;;;;;;;;25.50;44.80;;;;;;8261171;28;20020;-46
2021/06/29 07:09:45;;;;;;;;;;;25.50;44.80;;;;;;8261308;28;20474;-47
2021/06/29 07:13:46;;;;;;;;;;;25.50;44.80;;;;;;8260769;28;20026;-46
2021/06/29 07:17:46;;;;;;;;;;;25.40;44.70;;;;;;8265389;28;19922;-47
2021/06/29 07:21:47;;;;;;;;;;;25.40;44.70;;;;;;8261003;28;19917;-46
2021/06/29 07:25:48;;;;;;;;;;;25.40;44.70;;;;;;8260418;28;19917;-47
2021/06/29 07:29:48;;;;;;;;;;;25.40;44.70;;;;;;8260735;28;20055;-47
2021/06/29 07:33:49;;;;;;;;;;;25.40;44.70;;;;;;8261586;28;19976;-47
2021/06/29 07:37:49;;;;;;;;;;;25.40;44.70;;;;;;8263660;28;20387;-47
2021/06/29 07:41:50;;;;;;;;;;;25.40;44.70;;;;;;8260917;28;19914;-48
2021/06/29 07:45:50;;;;;;;;;;;25.40;44.70;;;;;;8260585;28;20389;-47
2021/06/29 07:49:51;;;;;;;;;;;25.50;44.70;;;;;;8259856;28;19914;-48
2021/06/29 07:53:51;;;;;;;;;;;25.40;44.70;;;;;;8265146;28;19909;-48
2021/06/29 07:57:52;;;;;;;;;;;25.50;44.70;;;;;;8260690;28;20403;-52
2021/06/29 08:01:53;;;;;;;;;;;25.50;44.70;;;;;;8265723;28;20319;-49
2021/06/29 08:05:53;;;;;;;;;;;25.50;44.70;;;;;;8266474;28;19924;-47
2021/06/29 08:09:54;;;;;;;;;;;25.50;44.70;;;;;;8270505;28;19925;-49
2021/06/29 08:13:54;;;;;;;;;;;25.50;44.60;;;;;;8265462;28;19918;-49
2021/06/29 08:17:54;;;;;;;;;;;25.50;44.60;;;;;;8265474;28;19921;-47
2021/06/29 08:21:55;;;;;;;;;;;25.50;44.60;;;;;;8265708;28;19914;-48
2021/06/29 08:25:56;;;;;;;;;;;25.50;44.70;;;;;;8265191;28;19929;-49
2021/06/29 08:29:58;;;;;;;;;;;25.50;44.60;;;;;;8269941;28;20429;-47
2021/06/29 08:33:58;;;;;;;;;;;25.60;44.70;;;;;;8264978;28;19956;-47
2021/06/29 08:37:59;;;;;;;;;;;25.50;44.60;;;;;;8265135;28;19929;-48
2021/06/29 08:41:59;;;;;;;;;;;25.60;44.60;;;;;;8264934;28;20264;-49
2021/06/29 08:46:01;;;;;;;;;;;25.50;44.60;;;;;;8269224;28;20798;-48
2021/06/29 08:50:03;;;;;;;;;;;25.60;44.60;;;;;;8264731;28;19914;-48
2021/06/29 08:54:04;;;;;;;;;;;25.60;44.60;;;;;;8264700;28;20437;-48
2021/06/29 08:58:05;;;;;;;;;;;25.60;44.60;;;;;;8263860;28;19917;-48
2021/06/29 09:02:05;;;;;;;;;;;25.60;44.60;;;;;;8269001;28;19946;-48
2021/06/29 09:06:07;;;;;;;;;;;25.60;44.60;;;;;;8264674;28;19963;-47
2021/06/29 09:10:09;;;;;;;;;;;25.60;44.50;;;;;;8262725;28;19960;-48
2021/06/29 09:14:10;;;;;;;;;;;25.60;44.50;;;;;;8263894;28;19913;-49
2021/06/29 09:18:18;;;;;;;;;;;25.70;44.60;;;;;;8264263;28;19932;-47
2021/06/29 09:22:26;;;;;;;;;;;25.70;44.50;;;;;;8267782;28;20417;-47
2021/06/29 09:26:27;;;;;;;;;;;25.70;44.50;;;;;;8263938;28;19959;-48
2021/06/29 09:30:29;;;;;;;;;;;25.70;44.50;;;;;;8263351;28;19914;-47
2021/06/29 09:34:30;;;;;;;;;;;25.70;44.50;;;;;;8262969;28;20303;-47
2021/06/29 09:38:32;;;;;;;;;;;25.70;44.50;;;;;;8267960;28;19928;-49
2021/06/29 09:42:32;;;;;;;;;;;25.70;44.50;;;;;;8264463;28;19960;-48
2021/06/29 09:46:33;;;;;;;;;;;25.80;44.60;;;;;;8263285;28;19913;-47
2021/06/29 09:50:33;;;;;;;;;;;25.80;44.60;;;;;;8263256;28;19945;-51
2021/06/29 09:54:35;;;;;;;;;;;25.80;44.60;;;;;;8261901;28;19918;-51
2021/06/29 09:58:36;;;;;;;;;;;25.80;44.60;;;;;;8266585;28;20375;-47
2021/06/29 10:02:37;;;;;;;;;;;25.80;44.50;;;;;;8262604;28;19913;-48
2021/06/29 10:06:38;;;;;;;;;;;25.90;44.50;;;;;;8262302;28;19924;-48
2021/06/29 10:10:39;;;;;;;;;;;25.90;44.50;;;;;;8261985;28;20278;-47
2021/06/29 10:14:40;;;;;;;;;;;25.90;44.40;;;;;;8266871;28;19910;-47
2021/06/29 10:18:50;;;;;;;;;;;25.90;44.40;;;;;;8262125;28;20298;-48
2021/06/29 10:22:52;;;;;;;;;;;26.00;44.50;;;;;;8240893;28;19949;-46
2021/06/29 10:26:56;;;;;;;;;;;26.00;44.40;;;;;;8242658;28;19921;-47
2021/06/29 10:30:57;;;;;;;;;;;26.00;44.40;;;;;;8261659;28;19913;-48
2021/06/29 10:34:57;;;;;;;;;;;26.00;44.40;;;;;;8266178;28;19918;-46
2021/06/29 10:38:59;;;;;;;;;;;26.00;44.40;;;;;;8262053;28;19921;-47
2021/06/29 10:43:00;;;;;;;;;;;26.00;44.40;;;;;;8260708;28;20405;-50
2021/06/29 10:47:01;;;;;;;;;;;26.00;44.30;;;;;;8262184;28;19964;-48
2021/06/29 10:51:03;;;;;;;;;;;26.00;44.40;;;;;;8265914;28;19913;-47
2021/06/29 10:55:20;;;;;;;;;;;26.00;44.40;;;;;;8261099;28;20331;-47
2021/06/29 10:59:34;;;;;;;;;;;26.00;44.40;;;;;;8261425;28;19932;-47
2021/06/29 11:03:38;;;;;;;;;;;26.00;44.40;;;;;;8261563;28;19925;-47
2021/06/29 11:07:39;;;;;;;;;;;25.90;44.40;;;;;;8260689;28;20482;-46
2021/06/29 11:11:41;;;;;;;;;;;25.90;44.40;;;;;;8265670;28;19921;-48
2021/06/29 11:15:43;;;;;;;;;;;25.90;44.50;;;;;;8260453;28;19920;-47
2021/06/29 11:20:10;;;;;;;;;;;25.90;44.40;;;;;;8260271;28;19925;-49
2021/06/29 11:24:34;;;;;;;;;;;25.90;44.40;;;;;;8258412;28;19914;-49
2021/06/29 11:28:36;;;;;;;;;;;25.80;44.40;;;;;;8260288;28;20291;-48
2021/06/29 11:32:36;;;;;;;;;;;25.80;44.40;;;;;;8264936;28;19909;-48
2021/06/29 11:36:47;;;;;;;;;;;25.80;44.40;;;;;;8266524;28;19914;-49
2021/06/29 11:40:47;;;;;;;;;;;25.80;44.40;;;;;;8265888;28;19925;-48
2021/06/29 11:44:49;;;;;;;;;;;25.70;44.30;;;;;;8265608;28;19949;-49
2021/06/29 11:48:52;;;;;;;;;;;25.70;44.30;;;;;;8266890;28;19910;-49
2021/06/29 11:52:55;;;;;;;;;;;25.70;44.40;;;;;;8270217;28;19910;-48
2021/06/29 11:56:56;;;;;;;;;;;25.70;44.40;;;;;;8266407;28;19961;-49
2021/06/29 12:00:58;;;;;;;;;;;25.70;44.40;;;;;;8265395;28;19929;-48
2021/06/29 12:05:00;;;;;;;;;;;25.70;44.50;;;;;;8265647;28;19918;-48
2021/06/29 12:09:02;;;;;;;;;;;25.70;44.50;;;;;;8270508;28;19913;-49
2021/06/29 12:13:04;;;;;;;;;;;25.60;44.50;;;;;;8265782;28;19914;-49
2021/06/29 12:17:05;;;;;;;;;;;25.70;44.50;;;;;;8265630;28;19928;-48
2021/06/29 12:21:06;;;;;;;;;;;25.60;44.50;;;;;;8265499;28;19918;-49
2021/06/29 12:25:09;;;;;;;;;;;25.60;44.50;;;;;;8264900;28;19921;-49
2021/06/29 12:29:10;;;;;;;;;;;25.60;44.50;;;;;;8269915;28;19914;-48
2021/06/29 12:33:18;;;;;;;;;;;25.60;44.50;;;;;;8265430;28;19936;-47
2021/06/29 12:37:18;;;;;;;;;;;25.60;44.50;;;;;;8264295;28;20278;-48
2021/06/29 12:41:21;;;;;;;;;;;25.60;44.50;;;;;;8264972;28;19917;-48
2021/06/29 12:45:26;;;;;;;;;;;25.60;44.50;;;;;;8269228;28;19983;-48
2021/06/29 12:49:27;;;;;;;;;;;25.60;44.60;;;;;;8264453;28;19920;-52
2021/06/29 12:53:28;;;;;;;;;;;25.60;44.50;;;;;;8265021;28;19918;-50
2021/06/29 12:57:29;;;;;;;;;;;25.60;44.60;;;;;;8264581;28;19914;-50
2021/06/29 13:01:31;;;;;;;;;;;25.60;44.60;;;;;;8263868;28;19968;-48
2021/06/29 13:05:32;;;;;;;;;;;25.60;44.60;;;;;;8268224;28;19975;-47
2021/06/29 13:09:33;;;;;;;;;;;25.60;44.60;;;;;;8264077;28;19914;-48
2021/06/29 13:13:33;;;;;;;;;;;25.60;44.60;;;;;;8263608;28;20264;-52
2021/06/29 13:17:44;;;;;;;;;;;25.60;44.60;;;;;;8264113;28;19914;-51
2021/06/29 13:21:52;;;;;;;;;;;25.60;44.60;;;;;;8268114;28;19997;-51
2021/06/29 13:25:52;;;;;;;;;;;25.50;44.50;;;;;;8263083;28;20272;-51
2021/06/29 13:30:01;;;;;;;;;;;25.60;44.60;;;;;;8263678;28;19953;-52
2021/06/29 13:34:01;;;;;;;;;;;25.60;44.60;;;;;;8262927;28;19913;-49
2021/06/29 13:38:09;;;;;;;;;;;25.50;44.50;;;;;;8263125;28;19921;-49
2021/06/29 13:42:30;;;;;;;;;;;25.50;44.50;;;;;;8267409;28;19952;-48
2021/06/29 13:46:30;;;;;;;;;;;25.50;44.50;;;;;;8261814;28;19933;-48
2021/06/29 13:50:35;;;;;;;;;;;25.50;44.50;;;;;;8263189;28;19914;-49
2021/06/29 13:54:36;;;;;;;;;;;25.50;44.60;;;;;;8262929;28;19957;-50
2021/06/29 13:58:37;;;;;;;;;;;25.50;44.50;;;;;;8263597;28;19949;-50
2021/06/29 14:02:37;;;;;;;;;;;25.50;44.50;;;;;;8264723;28;19926;-49
2021/06/29 14:06:38;;;;;;;;;;;25.50;44.50;;;;;;8265660;28;19913;-49
2021/06/29 14:10:39;;;;;;;;;;;25.50;44.50;;;;;;8261330;28;20349;-49
2021/06/29 14:14:41;;;;;;;;;;;25.60;44.50;;;;;;8262661;28;19913;-48
2021/06/29 14:18:42;;;;;;;;;;;25.50;44.50;;;;;;8266477;28;20004;-47
2021/06/29 14:22:42;;;;;;;;;;;25.50;44.50;;;;;;8261472;28;19914;-47
2021/06/29 14:26:43;;;;;;;;;;;25.60;44.50;;;;;;8247471;28;20299;-50
2021/06/29 14:30:43;;;;;;;;;;;25.60;44.50;;;;;;8229015;28;19941;-51
2021/06/29 14:34:44;;;;;;;;;;;25.60;44.50;;;;;;8264240;28;19960;-51
2021/06/29 14:38:45;;;;;;;;;;;25.60;44.50;;;;;;8262210;28;20374;-50
2021/06/29 14:42:46;;;;;;;;;;;25.60;44.50;;;;;;8261339;28;19910;-51
2021/06/29 14:46:47;;;;;;;;;;;25.60;44.50;;;;;;8261011;28;19960;-51
2021/06/29 14:50:47;;;;;;;;;;;25.60;44.40;;;;;;8260645;28;20362;-50
2021/06/29 14:54:48;;;;;;;;;;;25.60;44.40;;;;;;8266013;28;19917;-52
2021/06/29 14:58:48;;;;;;;;;;;25.60;44.40;;;;;;8260712;28;19967;-49
2021/06/29 15:02:49;;;;;;;;;;;25.60;44.40;;;;;;8261201;28;19964;-49
2021/06/29 15:06:50;;;;;;;;;;;25.60;44.40;;;;;;8261520;28;19960;-47
2021/06/29 15:10:50;;;;;;;;;;;25.60;44.40;;;;;;8271812;28;20432;-47
2021/06/29 15:14:51;;;;;;;;;;;25.60;44.40;;;;;;8267335;28;19921;-48
2021/06/29 15:18:52;;;;;;;;;;;25.60;44.30;;;;;;8266899;28;19976;-48
2021/06/29 15:22:52;;;;;;;;;;;25.70;44.30;;;;;;8267004;28;19928;-49
2021/06/29 15:26:53;;;;;;;;;;;25.60;44.30;;;;;;8272171;28;19910;-48
2021/06/29 15:30:53;;;;;;;;;;;25.60;44.30;;;;;;8267261;28;19914;-50
2021/06/29 15:34:54;;;;;;;;;;;25.70;44.30;;;;;;8266660;28;19918;-50
2021/06/29 15:38:54;;;;;;;;;;;25.70;44.30;;;;;;8267060;28;20244;-50
2021/06/29 15:42:56;;;;;;;;;;;25.70;44.30;;;;;;8266842;28;19909;-48
2021/06/29 15:46:57;;;;;;;;;;;25.70;44.40;;;;;;8247196;28;19961;-48
2021/06/29 15:50:58;;;;;;;;;;;25.70;44.30;;;;;;8267023;28;19918;-48
2021/06/29 15:54:59;;;;;;;;;;;25.70;44.30;;;;;;8266060;28;19917;-46
2021/06/29 15:58:59;;;;;;;;;;;25.70;44.30;;;;;;8266284;28;20441;-47
2021/06/29 16:03:00;;;;;;;;;;;25.70;44.20;;;;;;8270623;28;20004;-48
2021/06/29 16:07:00;;;;;;;;;;;25.70;44.30;;;;;;8265897;28;20354;-46
2021/06/29 16:11:01;;;;;;;;;;;25.60;44.20;;;;;;8266140;28;19921;-48
2021/06/29 16:15:01;;;;;;;;;;;25.70;44.30;;;;;;8266050;28;19913;-47
2021/06/29 16:19:03;;;;;;;;;;;25.60;44.20;;;;;;8266724;28;20012;-48
2021/06/29 16:23:04;;;;;;;;;;;25.60;44.20;;;;;;8268442;28;19992;-52
2021/06/29 16:27:04;;;;;;;;;;;25.60;44.20;;;;;;8265344;28;19914;-50
2021/06/29 16:31:05;;;;;;;;;;;25.70;44.20;;;;;;8265078;28;20446;-50
2021/06/29 16:35:07;;;;;;;;;;;25.60;44.10;;;;;;8265235;28;19918;-51
2021/06/29 16:39:07;;;;;;;;;;;25.60;44.20;;;;;;8269364;28;19945;-51
2021/06/29 16:43:08;;;;;;;;;;;25.60;44.10;;;;;;8264507;28;19925;-50
2021/06/29 16:47:08;;;;;;;;;;;25.60;44.10;;;;;;8265065;28;19929;-50
2021/06/29 16:51:11;;;;;;;;;;;25.60;44.60;;;;;;8264598;28;20004;-50
2021/06/29 16:55:13;;;;;;;;;;;25.60;44.10;;;;;;8268752;28;19956;-48
2021/06/29 16:59:13;;;;;;;;;;;25.70;44.20;;;;;;8265080;28;20017;-49
2021/06/29 17:03:14;;;;;;;;;;;25.60;44.00;;;;;;8264993;28;20326;-49
2021/06/29 17:07:16;;;;;;;;;;;25.60;44.10;;;;;;8264221;28;19960;-51
2021/06/29 17:11:16;;;;;;;;;;;25.70;44.10;;;;;;8264301;28;19910;-51
2021/06/29 17:15:17;;;;;;;;;;;25.60;44.00;;;;;;8268611;28;19910;-49
2021/06/29 17:19:17;;;;;;;;;;;25.70;44.10;;;;;;8263497;28;19928;-50
2021/06/29 17:23:18;;;;;;;;;;;25.60;44.00;;;;;;8264206;28;20013;-49
2021/06/29 17:27:19;;;;;;;;;;;25.60;44.00;;;;;;8263905;28;19914;-48
2021/06/29 17:31:19;;;;;;;;;;;25.60;44.00;;;;;;8266561;28;19960;-47
2021/06/29 17:35:20;;;;;;;;;;;25.60;44.00;;;;;;8263720;28;20004;-47
2021/06/29 17:39:20;;;;;;;;;;;25.60;44.00;;;;;;8263329;28;20028;-47
2021/06/29 17:43:21;;;;;;;;;;;25.60;44.00;;;;;;8254243;28;19925;-48
2021/06/29 17:47:21;;;;;;;;;;;25.60;44.00;;;;;;8235241;28;19910;-47
2021/06/29 17:51:22;;;;;;;;;;;25.60;44.00;;;;;;8262212;28;19921;-48
2021/06/29 17:55:22;;;;;;;;;;;25.60;44.00;;;;;;8262201;28;19914;-47
2021/06/29 17:59:23;;;;;;;;;;;25.60;44.00;;;;;;8262822;28;19921;-47
2021/06/29 18:03:23;;;;;;;;;;;25.60;44.00;;;;;;8262660;28;19945;-48
2021/06/29 18:07:23;;;;;;;;;;;25.60;44.00;;;;;;8266478;28;19917;-51
2021/06/29 18:11:24;;;;;;;;;;;25.60;44.00;;;;;;8237502;28;20390;-49
2021/06/29 18:15:24;;;;;;;;;;;25.60;44.00;;;;;;8246233;28;19914;-51
2021/06/29 18:19:25;;;;;;;;;;;25.60;44.00;;;;;;8261736;28;19922;-51
2021/06/29 18:23:26;;;;;;;;;;;25.60;44.00;;;;;;8266610;28;19910;-50
2021/06/29 18:27:26;;;;;;;;;;;25.60;44.00;;;;;;8262144;28;19913;-51
2021/06/29 18:31:27;;;;;;;;;;;25.60;44.00;;;;;;8261543;28;20321;-51
2021/06/29 18:35:28;;;;;;;;;;;25.60;44.00;;;;;;8261657;28;19996;-49
2021/06/29 18:39:28;;;;;;;;;;;25.50;44.00;;;;;;8263785;28;20008;-47
2021/06/29 18:43:29;;;;;;;;;;;25.60;44.00;;;;;;8263759;28;20285;-46
2021/06/29 18:47:30;;;;;;;;;;;25.50;43.90;;;;;;8261834;28;20382;-47
2021/06/29 18:51:31;;;;;;;;;;;25.60;44.00;;;;;;8260957;28;19918;-46
2021/06/29 18:55:32;;;;;;;;;;;25.60;44.00;;;;;;8261155;28;19925;-46
2021/06/29 18:59:33;;;;;;;;;;;25.60;44.00;;;;;;8265942;28;20377;-46
2021/06/29 19:03:33;;;;;;;;;;;25.50;44.00;;;;;;8261937;28;19917;-48
2021/06/29 19:07:34;;;;;;;;;;;25.50;44.00;;;;;;8261033;28;19914;-50
2021/06/29 19:11:35;;;;;;;;;;;25.50;44.00;;;;;;8261271;28;19917;-50
2021/06/29 19:15:36;;;;;;;;;;;25.50;44.10;;;;;;8265641;28;19924;-50
2021/06/29 19:19:36;;;;;;;;;;;25.50;44.10;;;;;;8260650;28;19923;-46
2021/06/29 19:23:37;;;;;;;;;;;25.40;44.10;;;;;;8261194;28;19914;-46
2021/06/29 19:27:38;;;;;;;;;;;25.50;44.10;;;;;;8261334;28;19921;-45
2021/06/29 19:31:39;;;;;;;;;;;25.40;44.10;;;;;;8260560;28;19913;-46
2021/06/29 19:35:39;;;;;;;;;;;25.40;44.10;;;;;;8265581;28;19910;-46
2021/06/29 19:39:40;;;;;;;;;;;25.40;44.10;;;;;;8260955;28;19928;-47
2021/06/29 19:43:41;;;;;;;;;;;25.40;44.20;;;;;;8260578;28;19914;-47
2021/06/29 19:47:41;;;;;;;;;;;25.40;44.20;;;;;;8275753;28;19964;-47
2021/06/29 19:51:41;;;;;;;;;;;25.40;44.20;;;;;;8264975;28;20286;-50
2021/06/29 19:55:42;;;;;;;;;;;25.40;44.20;;;;;;8262542;28;19949;-49
2021/06/29 19:59:42;;;;;;;;;;;25.40;44.20;;;;;;8266382;28;20437;-47
2021/06/29 20:03:43;;;;;;;;;;;25.40;44.30;;;;;;8266617;28;19917;-47
2021/06/29 20:07:43;;;;;;;;;;;25.30;44.20;;;;;;8270189;28;19910;-47
2021/06/29 20:11:45;;;;;;;;;;;25.40;44.30;;;;;;8266875;28;19914;-48
2021/06/29 20:15:45;;;;;;;;;;;25.40;44.30;;;;;;8265963;28;19955;-48
2021/06/29 20:19:46;;;;;;;;;;;25.40;44.30;;;;;;8265589;28;19922;-48
2021/06/29 20:23:46;;;;;;;;;;;25.30;44.30;;;;;;8265884;28;19918;-48
2021/06/29 20:27:47;;;;;;;;;;;25.30;44.30;;;;;;8270061;28;19947;-51
2021/06/29 20:31:48;;;;;;;;;;;25.30;44.30;;;;;;8265101;28;19956;-51
2021/06/29 20:35:48;;;;;;;;;;;25.30;44.40;;;;;;8265452;28;19952;-50
2021/06/29 20:39:50;;;;;;;;;;;25.30;44.40;;;;;;8265174;28;19918;-49
2021/06/29 20:43:50;;;;;;;;;;;25.30;44.40;;;;;;8269008;28;19921;-48
2021/06/29 20:47:51;;;;;;;;;;;25.30;44.40;;;;;;8265392;28;20382;-48
2021/06/29 20:51:51;;;;;;;;;;;25.20;44.30;;;;;;8265576;28;19932;-48
2021/06/29 20:55:52;;;;;;;;;;;25.20;44.30;;;;;;8264448;28;20371;-48
2021/06/29 20:59:52;;;;;;;;;;;25.20;44.40;;;;;;8267137;28;20063;-51
2021/06/29 21:03:53;;;;;;;;;;;25.20;44.40;;;;;;8266841;28;19945;-50
2021/06/29 21:07:54;;;;;;;;;;;25.20;44.30;;;;;;8264220;28;19914;-49
2021/06/29 21:11:54;;;;;;;;;;;25.20;44.40;;;;;;8264659;28;19914;-48
2021/06/29 21:15:54;;;;;;;;;;;25.20;44.40;;;;;;8264141;28;20367;-48
2021/06/29 21:19:55;;;;;;;;;;;25.20;44.30;;;;;;8268049;28;19922;-49
2021/06/29 21:23:56;;;;;;;;;;;25.20;44.30;;;;;;8263890;28;20430;-49
2021/06/29 21:27:56;;;;;;;;;;;25.20;44.90;;;;;;8263688;28;19913;-48
2021/06/29 21:31:57;;;;;;;;;;;25.20;44.40;;;;;;8264384;28;20374;-48
2021/06/29 21:35:58;;;;;;;;;;;25.20;44.40;;;;;;8267852;28;20434;-48
2021/06/29 21:39:58;;;;;;;;;;;25.10;44.40;;;;;;8234349;28;19945;-51
2021/06/29 21:43:58;;;;;;;;;;;25.10;44.40;;;;;;8251416;28;19918;-51
2021/06/29 21:47:59;;;;;;;;;;;25.10;44.40;;;;;;8263302;28;19913;-48
2021/06/29 21:51:59;;;;;;;;;;;25.10;44.40;;;;;;8262948;28;19937;-49
2021/06/29 21:56:00;;;;;;;;;;;25.10;44.40;;;;;;8267174;28;20079;-49
2021/06/29 22:00:00;;;;;;;;;;;25.10;44.40;;;;;;8262828;28;19922;-49
2021/06/29 22:04:01;;;;;;;;;;;25.10;44.40;;;;;;8261699;28;19918;-48
2021/06/29 22:08:03;;;;;;;;;;;25.10;44.40;;;;;;8262680;28;20017;-49
2021/06/29 22:12:04;;;;;;;;;;;25.10;44.40;;;;;;8267101;28;19913;-48
2021/06/29 22:16:05;;;;;;;;;;;25.00;44.40;;;;;;8262212;28;19960;-49
2021/06/29 22:20:06;;;;;;;;;;;25.00;44.40;;;;;;8261838;28;19928;-49
2021/06/29 22:24:06;;;;;;;;;;;25.00;44.40;;;;;;8261943;28;19942;-48
2021/06/29 22:28:07;;;;;;;;;;;25.00;44.40;;;;;;8265932;28;19917;-48
2021/06/29 22:32:08;;;;;;;;;;;25.00;44.40;;;;;;8262525;28;19921;-49
2021/06/29 22:36:08;;;;;;;;;;;25.00;44.40;;;;;;8262030;28;20510;-48
2021/06/29 22:40:09;;;;;;;;;;;25.00;44.40;;;;;;8261317;28;20318;-49
2021/06/29 22:44:09;;;;;;;;;;;25.00;44.50;;;;;;8261656;28;19917;-48
2021/06/29 22:48:10;;;;;;;;;;;25.00;44.50;;;;;;8266173;28;19910;-48
2021/06/29 22:52:11;;;;;;;;;;;25.00;44.50;;;;;;8261362;28;20347;-48
2021/06/29 22:56:11;;;;;;;;;;;24.90;44.50;;;;;;8262011;28;20001;-48
2021/06/29 23:00:13;;;;;;;;;;;24.90;44.50;;;;;;8261403;28;19965;-48
2021/06/29 23:04:14;;;;;;;;;;;24.90;44.50;;;;;;8265875;28;19917;-49
2021/06/29 23:08:14;;;;;;;;;;;24.90;44.50;;;;;;8261280;28;19924;-48
2021/06/29 23:12:15;;;;;;;;;;;24.90;44.50;;;;;;8261547;28;19914;-48
2021/06/29 23:16:15;;;;;;;;;;;24.90;44.40;;;;;;8261006;28;19921;-48
2021/06/29 23:20:16;;;;;;;;;;;24.90;44.40;;;;;;8265743;28;19918;-48
2021/06/29 23:24:16;;;;;;;;;;;24.90;44.40;;;;;;8261371;28;19914;-48